Time;durP1;ratioP1;P1;durP2;ratioP2;P2;SDS_P1;SDS_P2;PMS_P1;PMS_P2;Temp;Humidity;BMP_temperature;BMP_pressure;BME280_temperature;BME280_humidity;BME280_pressure;Samples;Min_cycle;Max_cycle;Signal;HPM_P1;HPM_P2
2021/07/21 00:00:26;;;;;;;4.57;2.33;;;13.90;99.90;;;;;;2034477;29;20587;-75
2021/07/21 00:01:27;;;;;;;5.45;2.28;;;13.90;99.90;;;;;;2033905;29;20233;-76
2021/07/21 00:02:27;;;;;;;6.15;3.42;;;13.80;99.90;;;;;;2026048;29;20185;-74
2021/07/21 00:03:28;;;;;;;2.90;1.97;;;13.80;99.90;;;;;;2025935;29;20190;-76
2021/07/21 00:04:29;;;;;;;1.93;1.83;;;13.80;99.90;;;;;;2033521;29;20177;-76
2021/07/21 00:05:30;;;;;;;2.17;2.03;;;13.80;99.90;;;;;;2033746;29;20181;-76
2021/07/21 00:06:31;;;;;;;3.37;3.07;;;13.80;99.90;;;;;;2026070;29;20637;-76
2021/07/21 00:07:31;;;;;;;3.25;2.30;;;13.70;99.90;;;;;;2017850;29;20188;-76
2021/07/21 00:08:32;;;;;;;5.13;2.87;;;13.70;99.90;;;;;;2025711;29;20592;-76
2021/07/21 00:09:33;;;;;;;1.53;1.43;;;13.70;99.90;;;;;;2033226;29;20211;-75
2021/07/21 00:10:35;;;;;;;1.87;1.70;;;13.70;99.90;;;;;;2025769;29;20185;-76
2021/07/21 00:14:20;;;;;;;3.60;1.80;;;13.60;99.90;;;;;;2033725;29;20208;-76
2021/07/21 00:15:25;;;;;;;2.10;1.50;;;13.60;99.90;;;;;;2033777;29;20636;-76
2021/07/21 00:16:33;;;;;;;3.45;2.80;;;13.60;99.90;;;;;;2033511;29;20252;-75
2021/07/21 00:17:35;;;;;;;3.45;3.15;;;13.60;99.90;;;;;;2026493;29;20180;-76
2021/07/21 00:18:47;;;;;;;2.38;2.17;;;13.50;99.90;;;;;;2033306;29;20184;-76
2021/07/21 00:21:14;;;;;;;3.40;1.90;;;13.50;99.90;;;;;;2037259;29;20197;-76
2021/07/21 00:22:15;;;;;;;2.10;1.73;;;13.50;99.90;;;;;;2033265;29;20189;-76
2021/07/21 00:23:16;;;;;;;2.73;2.33;;;13.50;99.90;;;;;;2025563;29;20597;-76
2021/07/21 00:24:18;;;;;;;3.53;2.35;;;13.50;99.90;;;;;;2033329;29;20178;-76
2021/07/21 00:25:18;;;;;;;5.18;2.47;;;13.60;99.90;;;;;;2033835;29;20214;-76
2021/07/21 00:26:19;;;;;;;2.53;2.27;;;13.50;99.90;;;;;;2033278;29;20181;-76
2021/07/21 00:27:21;;;;;;;2.10;1.87;;;13.50;99.90;;;;;;2025227;29;20213;-76
2021/07/21 00:28:22;;;;;;;2.42;1.90;;;13.50;99.90;;;;;;2033398;29;20205;-76
2021/07/21 00:29:23;;;;;;;3.22;2.90;;;13.40;99.90;;;;;;2033184;29;20188;-76
2021/07/21 00:30:24;;;;;;;3.27;2.73;;;13.40;99.90;;;;;;2025342;29;20820;-76
2021/07/21 00:31:25;;;;;;;2.03;1.92;;;13.50;99.90;;;;;;2025391;29;20205;-76
2021/07/21 00:32:26;;;;;;;2.83;1.83;;;13.50;99.90;;;;;;2025459;29;20797;-75
2021/07/21 00:33:26;;;;;;;4.37;3.20;;;13.50;99.90;;;;;;2033171;29;20181;-75
2021/07/21 00:34:28;;;;;;;2.87;2.40;;;13.40;99.90;;;;;;2041200;29;20236;-75
2021/07/21 00:35:29;;;;;;;3.30;2.05;;;13.40;99.90;;;;;;2033299;29;20192;-76
2021/07/21 00:36:30;;;;;;;1.77;1.67;;;13.40;99.90;;;;;;2033201;29;20180;-76
2021/07/21 00:37:30;;;;;;;6.07;2.67;;;13.40;99.90;;;;;;2033157;29;20193;-76
2021/07/21 00:38:31;;;;;;;4.10;1.70;;;13.30;99.90;;;;;;2033109;29;20185;-76
2021/07/21 00:39:32;;;;;;;2.97;2.60;;;13.30;99.90;;;;;;2033723;29;20275;-76
2021/07/21 00:40:33;;;;;;;3.57;2.03;;;13.40;99.90;;;;;;2033628;29;20265;-76
2021/07/21 00:41:34;;;;;;;1.70;1.60;;;13.30;99.90;;;;;;2033322;29;20626;-76
2021/07/21 00:42:34;;;;;;;2.40;2.27;;;13.40;99.90;;;;;;2025203;29;20429;-76
2021/07/21 00:43:35;;;;;;;4.27;2.93;;;13.30;99.90;;;;;;2025349;29;20228;-75
2021/07/21 00:44:36;;;;;;;1.80;1.60;;;13.40;99.90;;;;;;2025198;29;20193;-76
2021/07/21 00:45:37;;;;;;;2.53;2.33;;;13.30;99.90;;;;;;2033036;29;20208;-76
2021/07/21 00:46:37;;;;;;;3.10;2.43;;;13.30;99.90;;;;;;2025240;29;20651;-76
2021/07/21 00:47:39;;;;;;;5.40;2.67;;;13.30;99.90;;;;;;2032967;29;20429;-76
2021/07/21 00:48:39;;;;;;;4.78;2.30;;;13.30;99.90;;;;;;2041080;29;20185;-75
2021/07/21 00:49:41;;;;;;;2.60;2.37;;;13.30;99.90;;;;;;2040820;29;20196;-76
2021/07/21 00:50:41;;;;;;;3.95;2.55;;;13.30;99.90;;;;;;2033034;29;20260;-76
2021/07/21 00:51:42;;;;;;;2.57;2.37;;;13.30;99.90;;;;;;2025286;29;20183;-76
2021/07/21 00:52:44;;;;;;;3.50;2.37;;;13.30;99.90;;;;;;2033063;29;20181;-75
2021/07/21 00:53:45;;;;;;;6.15;3.38;;;13.20;99.90;;;;;;2033731;29;20260;-76
2021/07/21 00:54:47;;;;;;;2.22;2.08;;;13.20;99.90;;;;;;2032931;29;20715;-76
2021/07/21 00:55:48;;;;;;;2.38;2.13;;;13.20;99.90;;;;;;2025302;29;20233;-75
2021/07/21 00:56:49;;;;;;;3.97;2.25;;;13.20;99.90;;;;;;2025282;29;20185;-75
2021/07/21 00:57:50;;;;;;;5.93;3.42;;;13.20;99.90;;;;;;2017675;29;20186;-76
2021/07/21 00:58:51;;;;;;;2.80;2.30;;;13.20;99.90;;;;;;2025185;29;20722;-76
2021/07/21 00:59:52;;;;;;;4.80;2.00;;;13.20;99.90;;;;;;2040393;29;20205;-75
2021/07/21 01:00:55;;;;;;;2.78;2.50;;;13.20;99.90;;;;;;2024355;29;20193;-75
2021/07/21 01:01:57;;;;;;;3.72;2.45;;;13.20;99.90;;;;;;2023330;29;20196;-76
2021/07/21 01:02:58;;;;;;;2.65;2.42;;;13.10;99.90;;;;;;2033698;29;20177;-76
2021/07/21 01:03:58;;;;;;;1.90;1.67;;;13.10;99.90;;;;;;2033518;29;20185;-76
2021/07/21 01:04:59;;;;;;;2.63;2.43;;;13.10;99.90;;;;;;2033701;29;20756;-76
2021/07/21 01:06:01;;;;;;;2.63;2.43;;;13.10;99.90;;;;;;2033081;29;20184;-77
2021/07/21 01:07:06;;;;;;;5.00;2.25;;;13.10;99.90;;;;;;2032969;29;20437;-75
2021/07/21 01:08:10;;;;;;;2.58;2.03;;;13.10;99.90;;;;;;2040095;29;20188;-75
2021/07/21 01:09:11;;;;;;;2.67;2.47;;;13.10;99.90;;;;;;2032927;29;20233;-76
2021/07/21 01:10:12;;;;;;;3.23;1.93;;;13.10;99.90;;;;;;2025094;29;20228;-76
2021/07/21 01:11:57;;;;;;;2.80;2.20;;;13.10;99.90;;;;;;2025173;29;20185;-76
2021/07/21 01:13:25;;;;;;;2.22;2.03;;;13.00;99.90;;;;;;2036300;29;20258;-75
2021/07/21 01:14:43;;;;;;;4.20;1.65;;;13.00;99.90;;;;;;2032896;29;20173;-75
2021/07/21 01:15:53;;;;;;;2.65;2.20;;;13.00;99.90;;;;;;2027425;29;20180;-75
2021/07/21 01:17:02;;;;;;;1.67;1.58;;;13.00;99.90;;;;;;2026386;29;20174;-75
2021/07/21 01:18:14;;;;;;;5.28;2.63;;;13.00;99.90;;;;;;2026196;29;20236;-76
2021/07/21 01:19:53;;;;;;;5.97;3.00;;;13.00;99.90;;;;;;2026433;29;20680;-76
2021/07/21 01:21:17;;;;;;;1.92;1.83;;;12.90;99.90;;;;;;2030066;29;20200;-75
2021/07/21 01:22:35;;;;;;;2.30;2.10;;;12.90;99.90;;;;;;2033175;29;20220;-75
2021/07/21 01:23:47;;;;;;;4.20;2.15;;;12.90;99.90;;;;;;2033212;29;20162;-75
2021/07/21 01:25:12;;;;;;;1.75;1.63;;;12.90;99.90;;;;;;2033182;29;20185;-76
2021/07/21 01:26:18;;;;;;;4.25;2.63;;;12.90;99.90;;;;;;2033638;29;20379;-76
2021/07/21 01:27:28;;;;;;;2.35;1.88;;;12.90;99.90;;;;;;2032865;29;20670;-76
2021/07/21 01:28:30;;;;;;;2.90;1.77;;;12.90;99.90;;;;;;2018763;29;20650;-76
2021/07/21 01:29:30;;;;;;;1.60;1.50;;;12.90;99.90;;;;;;2017418;29;20178;-76
2021/07/21 01:30:37;;;;;;;2.60;1.97;;;12.80;99.90;;;;;;2024911;29;20186;-77
2021/07/21 01:31:41;;;;;;;2.10;1.95;;;12.90;99.90;;;;;;2018036;29;20201;-76
2021/07/21 01:32:54;;;;;;;1.83;1.30;;;12.80;99.90;;;;;;2025947;29;20190;-76
2021/07/21 01:33:57;;;;;;;3.92;2.55;;;12.80;99.90;;;;;;2025034;29;20268;-76
2021/07/21 01:35:07;;;;;;;3.10;2.35;;;12.80;99.90;;;;;;2025526;29;20252;-76
2021/07/21 01:36:21;;;;;;;2.35;2.13;;;12.80;99.90;;;;;;2024824;29;20280;-75
2021/07/21 01:37:23;;;;;;;3.75;2.22;;;12.80;99.90;;;;;;2020614;29;20306;-76
2021/07/21 01:38:32;;;;;;;2.10;1.77;;;12.80;99.90;;;;;;2025157;29;20213;-75
2021/07/21 01:39:43;;;;;;;2.70;2.22;;;12.70;99.90;;;;;;2026130;29;20582;-76
2021/07/21 01:40:52;;;;;;;4.10;2.35;;;12.70;99.90;;;;;;2026193;29;20177;-78
2021/07/21 01:42:00;;;;;;;2.83;2.53;;;12.60;99.90;;;;;;2026226;29;20537;-76
2021/07/21 01:43:03;;;;;;;3.53;1.98;;;12.60;99.90;;;;;;2025863;29;20654;-76
2021/07/21 01:44:10;;;;;;;1.52;1.42;;;12.60;99.90;;;;;;2033083;29;20185;-75
2021/07/21 01:45:11;;;;;;;1.70;1.60;;;12.60;99.90;;;;;;2032712;29;20259;-76
2021/07/21 01:46:13;;;;;;;1.92;1.83;;;12.60;99.90;;;;;;2025140;29;20206;-75
2021/07/21 01:47:21;;;;;;;10.65;3.53;;;12.60;99.90;;;;;;2024836;29;20221;-75
2021/07/21 01:48:24;;;;;;;2.40;2.28;;;12.70;99.90;;;;;;2025804;29;20209;-76
2021/07/21 01:49:31;;;;;;;2.65;1.83;;;12.70;99.90;;;;;;2025765;29;20273;-75
2021/07/21 01:50:32;;;;;;;3.30;2.28;;;12.60;99.90;;;;;;2025776;29;20170;-76
2021/07/21 01:51:33;;;;;;;2.57;2.00;;;12.50;99.90;;;;;;2024786;29;20188;-76
2021/07/21 01:52:38;;;;;;;2.42;2.22;;;12.50;99.90;;;;;;2032674;29;20413;-75
2021/07/21 01:53:40;;;;;;;2.97;1.73;;;12.50;99.90;;;;;;2032679;29;20224;-75
2021/07/21 01:54:42;;;;;;;2.85;2.63;;;12.50;99.90;;;;;;2025132;29;20186;-76
2021/07/21 01:55:44;;;;;;;1.42;1.33;;;12.50;99.90;;;;;;2024963;29;20696;-76
2021/07/21 01:56:47;;;;;;;3.28;2.22;;;12.50;99.90;;;;;;2032885;29;20225;-75
2021/07/21 01:57:49;;;;;;;2.35;2.15;;;12.50;99.90;;;;;;2032458;29;20247;-76
2021/07/21 01:58:52;;;;;;;1.80;1.70;;;12.50;99.90;;;;;;2017256;29;20739;-75
2021/07/21 01:59:54;;;;;;;1.95;1.60;;;12.50;99.90;;;;;;2017526;29;20206;-75
2021/07/21 02:00:56;;;;;;;3.03;2.30;;;12.50;99.90;;;;;;2024865;29;20184;-76
2021/07/21 02:02:01;;;;;;;4.50;2.30;;;12.50;99.90;;;;;;2024965;29;20585;-75
2021/07/21 02:03:02;;;;;;;4.03;2.00;;;12.40;99.90;;;;;;2033084;29;20181;-76
2021/07/21 02:04:05;;;;;;;2.22;1.52;;;12.40;99.90;;;;;;2032777;29;20248;-75
2021/07/21 02:05:07;;;;;;;4.55;2.08;;;12.40;99.90;;;;;;2032629;29;20189;-76
2021/07/21 02:06:08;;;;;;;2.70;2.38;;;12.40;99.90;;;;;;2033169;29;20185;-75
2021/07/21 02:07:11;;;;;;;1.58;1.48;;;12.40;99.90;;;;;;2032328;29;20174;-75
2021/07/21 02:08:12;;;;;;;1.77;1.67;;;12.40;99.90;;;;;;2024712;29;20178;-76
2021/07/21 02:09:14;;;;;;;2.90;2.63;;;12.40;99.90;;;;;;2024804;29;20193;-76
2021/07/21 02:10:20;;;;;;;3.08;2.25;;;12.30;99.90;;;;;;2024747;29;20242;-76
2021/07/21 02:11:21;;;;;;;3.60;1.83;;;12.30;99.90;;;;;;2024830;29;20209;-76
2021/07/21 02:12:22;;;;;;;2.30;2.15;;;12.30;99.90;;;;;;2019281;29;20620;-75
2021/07/21 02:13:26;;;;;;;1.90;1.80;;;12.20;99.90;;;;;;2021838;29;20279;-76
2021/07/21 02:14:28;;;;;;;2.67;2.10;;;12.20;99.90;;;;;;2024520;29;20200;-76
2021/07/21 02:15:29;;;;;;;1.92;1.70;;;12.20;99.90;;;;;;2024688;29;20190;-75
2021/07/21 02:16:31;;;;;;;2.78;1.67;;;12.20;99.90;;;;;;2024625;29;20196;-76
2021/07/21 02:17:32;;;;;;;3.05;2.03;;;12.20;99.90;;;;;;2016997;29;20646;-76
2021/07/21 02:18:34;;;;;;;2.38;1.90;;;12.20;99.90;;;;;;2016971;29;20190;-76
2021/07/21 02:19:35;;;;;;;3.05;2.45;;;12.20;99.90;;;;;;2016939;29;20289;-76
2021/07/21 02:20:37;;;;;;;3.33;2.40;;;12.20;99.90;;;;;;2024694;29;20178;-75
2021/07/21 02:21:40;;;;;;;3.13;2.85;;;12.20;99.90;;;;;;2024687;29;20182;-76
2021/07/21 02:22:43;;;;;;;2.38;2.17;;;12.10;99.90;;;;;;2017147;29;20220;-76
2021/07/21 02:23:47;;;;;;;3.17;2.47;;;12.10;99.90;;;;;;2025049;29;20560;-76
2021/07/21 02:24:48;;;;;;;2.80;2.55;;;12.10;99.90;;;;;;2024610;29;20249;-76
2021/07/21 02:25:50;;;;;;;1.75;1.65;;;12.10;99.90;;;;;;2016981;29;20189;-75
2021/07/21 02:26:50;;;;;;;2.28;2.03;;;12.10;99.90;;;;;;2017078;29;20174;-75
2021/07/21 02:27:52;;;;;;;2.43;2.23;;;12.10;99.90;;;;;;2024745;29;20261;-76
2021/07/21 02:28:53;;;;;;;1.35;1.30;;;12.10;99.90;;;;;;2024678;29;20188;-76
2021/07/21 02:29:53;;;;;;;1.80;1.57;;;12.10;99.90;;;;;;2016628;29;20216;-76
2021/07/21 02:30:57;;;;;;;3.03;2.80;;;12.10;99.90;;;;;;2016742;29;20215;-75
2021/07/21 02:32:10;;;;;;;2.08;1.98;;;12.10;99.90;;;;;;2024978;29;20186;-75
2021/07/21 02:33:24;;;;;;;2.13;1.92;;;12.10;99.90;;;;;;2024583;29;20650;-75
2021/07/21 02:34:25;;;;;;;2.30;2.10;;;12.10;99.90;;;;;;2024940;29;20172;-76
2021/07/21 02:35:25;;;;;;;2.50;2.30;;;12.10;99.90;;;;;;2025303;29;20188;-76
2021/07/21 02:36:26;;;;;;;2.83;2.53;;;12.00;99.90;;;;;;2024631;29;20269;-76
2021/07/21 02:37:27;;;;;;;2.77;1.57;;;12.00;99.90;;;;;;2016612;29;20194;-76
2021/07/21 02:38:28;;;;;;;2.83;1.90;;;12.00;99.90;;;;;;2024726;29;20186;-76
2021/07/21 02:39:29;;;;;;;2.50;2.30;;;12.00;99.90;;;;;;2024353;29;20214;-76
2021/07/21 02:40:30;;;;;;;4.10;1.80;;;12.00;99.90;;;;;;2024626;29;20328;-76
2021/07/21 02:41:32;;;;;;;2.95;2.03;;;12.00;99.90;;;;;;2024578;29;20204;-76
2021/07/21 02:42:33;;;;;;;1.70;1.60;;;12.00;99.90;;;;;;2024678;29;20213;-76
2021/07/21 02:43:34;;;;;;;2.67;2.47;;;12.00;99.90;;;;;;2032315;29;20189;-76
2021/07/21 02:44:35;;;;;;;2.13;2.03;;;12.00;99.90;;;;;;2024468;29;20182;-76
2021/07/21 02:45:36;;;;;;;2.00;1.90;;;12.00;99.90;;;;;;2024509;29;20649;-76
2021/07/21 02:46:38;;;;;;;2.63;2.42;;;12.00;99.90;;;;;;2025071;29;20185;-75
2021/07/21 02:47:40;;;;;;;3.05;1.88;;;12.00;99.90;;;;;;2024463;29;20214;-76
2021/07/21 02:48:47;;;;;;;2.63;2.47;;;12.00;99.90;;;;;;2024846;29;20672;-75
2021/07/21 02:49:50;;;;;;;2.17;1.95;;;12.00;99.90;;;;;;2024426;29;20202;-76
2021/07/21 02:51:10;;;;;;;1.92;1.83;;;12.00;99.90;;;;;;2024496;29;20216;-76
2021/07/21 02:52:18;;;;;;;2.65;2.28;;;12.00;99.90;;;;;;2016938;29;20186;-76
2021/07/21 02:53:29;;;;;;;2.22;2.03;;;11.90;99.90;;;;;;2011752;29;20171;-75
2021/07/21 02:54:43;;;;;;;1.58;1.48;;;11.90;99.90;;;;;;2025898;29;20208;-76
2021/07/21 02:55:53;;;;;;;2.08;1.50;;;11.90;99.90;;;;;;2030822;29;20704;-76
2021/07/21 02:57:02;;;;;;;1.27;1.27;;;11.80;99.90;;;;;;2024234;29;20177;-76
2021/07/21 02:58:32;;;;;;;2.88;2.25;;;11.80;99.90;;;;;;2025715;29;20621;-76
2021/07/21 02:59:45;;;;;;;3.83;1.73;;;11.80;99.90;;;;;;2029657;29;20212;-76
2021/07/21 03:00:47;;;;;;;1.75;1.58;;;11.80;99.90;;;;;;2026194;29;20188;-76
2021/07/21 03:01:49;;;;;;;6.97;2.20;;;11.80;99.90;;;;;;2024626;29;20675;-76
2021/07/21 03:02:52;;;;;;;2.05;1.85;;;11.80;99.90;;;;;;2025068;29;20264;-76
2021/07/21 03:03:54;;;;;;;1.05;0.98;;;11.80;99.90;;;;;;2024632;29;20221;-76
2021/07/21 03:04:58;;;;;;;1.45;1.35;;;11.80;99.90;;;;;;2024714;29;20186;-76
2021/07/21 03:06:06;;;;;;;1.60;1.50;;;11.80;99.90;;;;;;2025055;29;20621;-76
2021/07/21 03:07:08;;;;;;;2.28;1.92;;;11.80;99.90;;;;;;2025222;29;20273;-76
2021/07/21 03:08:10;;;;;;;3.00;2.30;;;11.80;99.90;;;;;;2024845;29;20193;-76
2021/07/21 03:09:12;;;;;;;2.33;2.13;;;11.80;99.90;;;;;;2032403;29;20196;-74
2021/07/21 03:10:16;;;;;;;1.92;1.83;;;11.70;99.90;;;;;;2024396;29;20257;-75
2021/07/21 03:11:20;;;;;;;2.03;1.83;;;11.70;99.90;;;;;;2009708;29;20281;-75
2021/07/21 03:12:25;;;;;;;1.58;1.48;;;11.80;99.90;;;;;;2017624;29;20620;-75
2021/07/21 03:13:48;;;;;;;1.77;1.67;;;11.80;99.90;;;;;;2024975;29;20199;-76
2021/07/21 03:14:54;;;;;;;1.83;1.73;;;11.80;99.90;;;;;;2032285;29;20164;-76
2021/07/21 03:15:55;;;;;;;1.92;1.83;;;11.70;99.90;;;;;;2025353;29;20166;-75
2021/07/21 03:17:01;;;;;;;3.33;2.45;;;11.80;99.90;;;;;;2024524;29;20189;-76
2021/07/21 03:18:04;;;;;;;2.95;2.28;;;11.80;99.90;;;;;;2025202;29;20181;-76
2021/07/21 03:19:06;;;;;;;2.60;2.40;;;11.80;99.90;;;;;;2024607;29;20213;-76
2021/07/21 03:20:08;;;;;;;1.83;1.67;;;11.80;99.90;;;;;;2024458;29;20205;-76
2021/07/21 03:21:10;;;;;;;2.53;2.28;;;11.80;99.90;;;;;;2024548;29;20190;-76
2021/07/21 03:22:15;;;;;;;2.25;2.00;;;11.80;99.90;;;;;;2024649;29;20186;-76
2021/07/21 03:23:16;;;;;;;3.85;1.70;;;11.80;99.90;;;;;;2026503;29;20181;-76
2021/07/21 03:24:20;;;;;;;2.55;1.60;;;11.80;99.90;;;;;;2026062;29;20560;-76
2021/07/21 03:25:22;;;;;;;2.17;1.92;;;11.80;99.90;;;;;;2026491;29;20188;-75
2021/07/21 03:26:24;;;;;;;3.28;2.13;;;11.80;99.90;;;;;;2026136;29;20272;-75
2021/07/21 03:27:26;;;;;;;2.85;2.10;;;11.80;99.90;;;;;;2025875;29;20196;-76
2021/07/21 03:28:28;;;;;;;1.70;1.60;;;11.80;99.90;;;;;;2025898;29;20233;-76
2021/07/21 03:29:31;;;;;;;2.20;2.10;;;11.80;99.90;;;;;;2025614;29;20216;-75
2021/07/21 03:30:33;;;;;;;4.03;2.17;;;11.80;99.90;;;;;;2026298;29;20196;-75
2021/07/21 03:31:36;;;;;;;5.57;1.98;;;11.80;99.90;;;;;;2026064;29;20186;-76
2021/07/21 03:32:39;;;;;;;2.72;2.17;;;11.70;99.90;;;;;;2033945;29;20573;-76
2021/07/21 03:33:44;;;;;;;1.42;1.30;;;11.70;99.90;;;;;;2033605;29;20196;-76
2021/07/21 03:34:47;;;;;;;3.08;2.38;;;11.70;99.90;;;;;;2026381;29;20190;-76
2021/07/21 03:35:49;;;;;;;3.63;1.92;;;11.70;99.90;;;;;;2026084;29;20713;-76
2021/07/21 03:36:54;;;;;;;2.00;1.80;;;11.70;99.90;;;;;;2026342;29;20688;-75
2021/07/21 03:37:57;;;;;;;1.83;1.70;;;11.70;99.90;;;;;;2028698;29;20182;-78
2021/07/21 03:38:59;;;;;;;2.58;2.00;;;11.70;99.90;;;;;;2028580;29;20248;-75
2021/07/21 03:40:03;;;;;;;2.22;2.03;;;11.70;99.90;;;;;;2028150;29;20261;-76
2021/07/21 03:41:05;;;;;;;2.55;2.35;;;11.60;99.90;;;;;;2028931;29;20193;-76
2021/07/21 03:42:07;;;;;;;4.47;2.80;;;11.60;99.90;;;;;;2028432;29;20285;-76
2021/07/21 03:43:09;;;;;;;7.55;2.42;;;11.60;99.90;;;;;;2028565;29;20189;-76
2021/07/21 03:44:11;;;;;;;1.88;1.65;;;11.60;99.90;;;;;;2028510;29;20185;-75
2021/07/21 03:45:13;;;;;;;3.03;2.35;;;11.60;99.90;;;;;;2028404;29;20188;-74
2021/07/21 03:46:15;;;;;;;3.60;2.25;;;11.60;99.90;;;;;;2027432;29;20204;-75
2021/07/21 03:47:17;;;;;;;2.33;2.13;;;11.60;99.90;;;;;;2028188;29;20185;-76
2021/07/21 03:48:19;;;;;;;1.63;1.52;;;11.60;99.90;;;;;;2028145;29;20185;-75
2021/07/21 03:49:20;;;;;;;4.32;1.83;;;11.50;99.90;;;;;;2027236;29;20193;-76
2021/07/21 03:50:23;;;;;;;1.85;1.75;;;11.50;99.90;;;;;;2035283;29;20192;-76
2021/07/21 03:51:25;;;;;;;2.13;1.95;;;11.50;99.90;;;;;;2035115;29;20187;-75
2021/07/21 03:52:27;;;;;;;2.13;1.98;;;11.50;99.90;;;;;;2027212;29;20190;-76
2021/07/21 03:53:31;;;;;;;1.77;1.67;;;11.50;99.90;;;;;;2027589;29;20639;-75
2021/07/21 03:54:32;;;;;;;2.65;2.13;;;11.50;99.90;;;;;;2028810;29;20309;-75
2021/07/21 03:55:38;;;;;;;4.32;2.28;;;11.50;99.90;;;;;;2028262;29;20208;-76
2021/07/21 03:56:42;;;;;;;1.67;1.58;;;11.50;99.90;;;;;;2028547;29;20325;-75
2021/07/21 03:57:46;;;;;;;4.47;2.25;;;11.50;99.90;;;;;;2028283;29;20649;-76
2021/07/21 03:58:47;;;;;;;1.70;1.17;;;11.60;99.90;;;;;;2028377;29;20186;-75
2021/07/21 03:59:48;;;;;;;2.20;1.60;;;11.50;99.90;;;;;;2035959;29;20201;-75
2021/07/21 04:00:53;;;;;;;1.70;1.60;;;11.50;99.90;;;;;;2028062;29;20581;-75
2021/07/21 04:01:55;;;;;;;2.40;2.25;;;11.50;99.90;;;;;;2021531;29;20215;-75
2021/07/21 04:03:00;;;;;;;3.50;1.98;;;11.50;99.90;;;;;;2028230;29;20280;-76
2021/07/21 04:04:02;;;;;;;1.50;1.40;;;11.40;99.90;;;;;;2028139;29;20581;-75
2021/07/21 04:05:05;;;;;;;3.47;2.40;;;11.50;99.90;;;;;;2021046;29;20183;-76
2021/07/21 04:06:07;;;;;;;3.78;2.53;;;11.50;99.90;;;;;;2028315;29;20181;-75
2021/07/21 04:07:11;;;;;;;4.63;2.78;;;11.50;99.90;;;;;;2027879;29;20189;-76
2021/07/21 04:08:13;;;;;;;2.75;1.58;;;11.50;99.90;;;;;;2027999;29;20189;-76
2021/07/21 04:09:19;;;;;;;2.67;2.47;;;11.50;99.90;;;;;;2028127;29;20185;-75
2021/07/21 04:10:22;;;;;;;1.92;1.77;;;11.50;99.90;;;;;;2028667;29;20270;-75
2021/07/21 04:11:26;;;;;;;1.67;1.58;;;11.60;99.90;;;;;;2020264;29;20200;-76
2021/07/21 04:12:30;;;;;;;2.75;2.28;;;11.50;99.90;;;;;;2020889;29;20746;-75
2021/07/21 04:13:34;;;;;;;3.22;2.05;;;11.60;99.90;;;;;;2035885;29;20656;-76
2021/07/21 04:14:36;;;;;;;4.18;2.67;;;11.60;99.90;;;;;;2035873;29;20192;-75
2021/07/21 04:15:37;;;;;;;1.55;1.45;;;11.60;99.90;;;;;;2028228;29;20272;-76
2021/07/21 04:16:38;;;;;;;1.55;1.45;;;11.60;99.90;;;;;;2028189;29;20580;-75
2021/07/21 04:17:40;;;;;;;2.05;1.85;;;11.60;99.90;;;;;;2035552;29;20279;-75
2021/07/21 04:18:42;;;;;;;5.20;2.83;;;11.60;99.90;;;;;;2027921;29;20186;-75
2021/07/21 04:19:44;;;;;;;2.00;1.88;;;11.60;99.90;;;;;;2027814;29;20333;-76
2021/07/21 04:20:45;;;;;;;6.18;1.98;;;11.60;99.90;;;;;;2043949;29;20191;-76
2021/07/21 04:21:50;;;;;;;2.50;2.30;;;11.60;99.90;;;;;;2043804;29;20211;-76
2021/07/21 04:22:52;;;;;;;2.85;1.50;;;11.60;99.90;;;;;;2035595;29;20216;-76
2021/07/21 04:23:54;;;;;;;2.00;1.85;;;11.60;99.90;;;;;;2035935;29;20688;-76
2021/07/21 04:24:58;;;;;;;1.55;1.40;;;11.70;99.90;;;;;;2035625;29;20280;-75
2021/07/21 04:26:00;;;;;;;2.47;2.28;;;11.70;99.90;;;;;;2020592;29;20186;-76
2021/07/21 04:27:05;;;;;;;2.80;2.60;;;11.70;99.90;;;;;;2028239;29;20182;-76
2021/07/21 04:28:06;;;;;;;2.10;1.98;;;11.70;99.90;;;;;;2035574;29;20726;-75
2021/07/21 04:29:16;;;;;;;2.03;1.73;;;11.70;99.90;;;;;;2028008;29;20287;-76
2021/07/21 04:30:17;;;;;;;2.15;1.95;;;11.70;99.90;;;;;;2028916;29;20208;-75
2021/07/21 04:31:26;;;;;;;1.90;1.30;;;11.70;99.90;;;;;;2027311;29;20254;-75
2021/07/21 04:32:28;;;;;;;1.98;1.88;;;11.70;99.90;;;;;;2018541;29;20485;-76
2021/07/21 04:33:29;;;;;;;1.70;1.60;;;11.70;99.90;;;;;;2026555;29;20253;-76
2021/07/21 04:34:31;;;;;;;4.57;2.28;;;11.70;99.90;;;;;;2024528;29;20193;-75
2021/07/21 04:35:32;;;;;;;2.40;1.90;;;11.70;99.90;;;;;;2025422;29;20713;-75
2021/07/21 04:36:35;;;;;;;1.63;1.53;;;11.80;99.90;;;;;;2033082;29;20188;-76
2021/07/21 04:37:40;;;;;;;3.92;2.65;;;11.80;99.90;;;;;;2025500;29;20258;-76
2021/07/21 04:38:41;;;;;;;3.00;1.92;;;11.80;99.90;;;;;;2024996;29;20215;-76
2021/07/21 04:39:43;;;;;;;2.70;1.95;;;11.90;99.90;;;;;;2025247;29;20292;-76
2021/07/21 04:40:46;;;;;;;3.45;2.53;;;11.90;99.90;;;;;;2025423;29;20186;-75
2021/07/21 04:41:51;;;;;;;1.85;1.75;;;11.90;99.90;;;;;;2025508;29;20174;-76
2021/07/21 04:42:52;;;;;;;1.88;1.70;;;11.80;99.90;;;;;;2017868;29;20245;-76
2021/07/21 04:43:54;;;;;;;3.23;1.93;;;11.90;99.90;;;;;;2025486;29;20233;-76
2021/07/21 04:44:56;;;;;;;2.72;1.63;;;11.90;99.90;;;;;;2025201;29;20178;-76
2021/07/21 04:45:57;;;;;;;1.95;1.73;;;11.90;99.90;;;;;;2025434;29;20230;-76
2021/07/21 04:47:00;;;;;;;2.10;1.67;;;11.90;99.90;;;;;;2033408;29;20213;-75
2021/07/21 04:48:01;;;;;;;2.42;2.22;;;11.90;99.90;;;;;;2033048;29;20191;-76
2021/07/21 04:49:03;;;;;;;5.70;2.45;;;12.00;99.90;;;;;;2033073;29;20703;-75
2021/07/21 04:50:07;;;;;;;1.55;1.45;;;11.90;99.90;;;;;;2033057;29;20240;-75
2021/07/21 04:51:10;;;;;;;2.22;2.08;;;12.00;99.90;;;;;;2025623;29;20220;-76
2021/07/21 04:52:14;;;;;;;2.33;2.22;;;12.00;99.90;;;;;;2033327;29;20271;-76
2021/07/21 04:53:15;;;;;;;1.50;1.40;;;12.00;99.90;;;;;;2033055;29;20182;-76
2021/07/21 04:54:16;;;;;;;2.10;1.90;;;12.10;99.90;;;;;;2033026;29;20183;-74
2021/07/21 04:55:17;;;;;;;3.10;1.77;;;12.10;99.90;;;;;;2024738;29;20574;-75
2021/07/21 04:56:18;;;;;;;1.75;1.50;;;12.10;99.90;;;;;;2009310;29;20836;-76
2021/07/21 04:57:22;;;;;;;1.60;1.50;;;12.10;99.90;;;;;;2023918;29;20276;-76
2021/07/21 04:58:22;;;;;;;1.25;1.15;;;12.10;99.90;;;;;;2017393;29;20194;-76
2021/07/21 04:59:23;;;;;;;2.17;2.00;;;12.20;99.90;;;;;;2017144;29;20305;-76
2021/07/21 05:00:24;;;;;;;3.53;2.40;;;12.20;99.90;;;;;;2017235;29;20239;-76
2021/07/21 05:01:25;;;;;;;2.28;2.05;;;12.20;99.90;;;;;;2009554;29;20206;-76
2021/07/21 05:02:26;;;;;;;2.17;1.50;;;12.20;99.90;;;;;;2009723;29;20207;-76
2021/07/21 05:03:26;;;;;;;4.27;1.90;;;12.20;99.90;;;;;;2009620;29;20183;-76
2021/07/21 05:04:27;;;;;;;4.40;2.70;;;12.20;99.90;;;;;;2017407;29;20673;-76
2021/07/21 05:05:28;;;;;;;2.87;2.53;;;12.20;99.90;;;;;;2009448;29;20182;-76
2021/07/21 05:06:34;;;;;;;3.60;1.97;;;12.20;99.90;;;;;;2009687;29;20182;-75
2021/07/21 05:07:35;;;;;;;1.95;1.77;;;12.30;99.90;;;;;;2010257;29;20187;-76
2021/07/21 05:08:35;;;;;;;2.57;2.37;;;12.30;99.90;;;;;;2017407;29;20205;-76
2021/07/21 05:09:36;;;;;;;2.20;2.00;;;12.30;99.90;;;;;;2030125;29;20652;-76
2021/07/21 05:10:37;;;;;;;3.00;2.33;;;12.30;99.90;;;;;;2025428;29;20261;-76
2021/07/21 05:11:39;;;;;;;2.73;1.80;;;12.30;99.90;;;;;;2017118;29;20187;-76
2021/07/21 05:12:44;;;;;;;1.70;1.60;;;12.40;99.90;;;;;;2025292;29;20174;-76
2021/07/21 05:13:44;;;;;;;2.85;2.17;;;12.50;99.90;;;;;;2032749;29;20240;-74
2021/07/21 05:14:45;;;;;;;3.23;2.00;;;12.50;99.90;;;;;;2032416;29;20233;-75
2021/07/21 05:15:47;;;;;;;2.10;2.00;;;12.50;99.90;;;;;;2025480;29;20217;-75
2021/07/21 05:16:47;;;;;;;5.43;2.78;;;12.50;99.90;;;;;;2032808;29;20232;-76
2021/07/21 05:17:48;;;;;;;4.37;2.10;;;12.50;99.90;;;;;;2032514;29;20828;-75
2021/07/21 05:18:50;;;;;;;2.42;1.92;;;12.50;99.90;;;;;;2024921;29;20192;-75
2021/07/21 05:19:50;;;;;;;4.15;2.17;;;12.50;99.90;;;;;;2017008;29;20210;-75
2021/07/21 05:20:51;;;;;;;2.43;2.20;;;12.50;99.90;;;;;;2032850;29;20632;-75
2021/07/21 05:21:53;;;;;;;3.03;1.70;;;12.50;99.90;;;;;;2032688;29;20185;-75
2021/07/21 05:22:53;;;;;;;2.83;1.73;;;12.50;99.90;;;;;;2025026;29;20246;-76
2021/07/21 05:23:54;;;;;;;2.93;2.67;;;12.50;99.90;;;;;;2017270;29;20257;-75
2021/07/21 05:24:55;;;;;;;2.60;1.90;;;12.50;99.90;;;;;;2025025;29;20245;-76
2021/07/21 05:25:57;;;;;;;1.57;1.47;;;12.60;99.90;;;;;;2032621;29;20181;-75
2021/07/21 05:26:57;;;;;;;2.17;1.95;;;12.60;99.90;;;;;;2032553;29;20240;-75
2021/07/21 05:27:58;;;;;;;3.93;2.23;;;12.60;99.90;;;;;;2024839;29;20633;-75
2021/07/21 05:28:59;;;;;;;1.50;1.43;;;12.60;99.90;;;;;;2025021;29;20214;-75
2021/07/21 05:29:59;;;;;;;1.73;1.60;;;12.70;99.90;;;;;;2024761;29;20668;-75
2021/07/21 05:31:01;;;;;;;2.27;1.77;;;12.60;99.90;;;;;;2017132;29;20265;-75
2021/07/21 05:32:03;;;;;;;1.65;1.55;;;12.60;99.90;;;;;;2024730;29;20190;-75
2021/07/21 05:33:04;;;;;;;15.90;1.80;;;12.70;99.90;;;;;;2025458;29;20260;-75
2021/07/21 05:34:05;;;;;;;2.92;1.63;;;12.70;99.90;;;;;;2025439;29;20276;-76
2021/07/21 05:35:07;;;;;;;1.90;1.80;;;12.70;99.90;;;;;;2024771;29;20182;-76